createdAt,value
2016-12-15T00:00:15.939Z,1012.63
2016-12-15T00:01:05.281Z,1012.62
2016-12-15T00:01:27.009Z,1012.60
2016-12-15T00:02:39.873Z,1012.63
2016-12-15T00:03:32.946Z,1012.61
2016-12-15T00:04:29.490Z,1012.63
2016-12-15T00:04:55.992Z,1012.60
2016-12-15T00:05:27.264Z,1012.63
2016-12-15T00:05:53.776Z,1012.58
2016-12-15T00:06:54.095Z,1012.57
2016-12-15T00:07:25.371Z,1012.60
2016-12-15T00:07:47.215Z,1012.56
2016-12-15T00:08:13.621Z,1012.53
2016-12-15T00:08:40.152Z,1012.46
2016-12-15T00:09:02.922Z,1012.45
2016-12-15T00:09:25.664Z,1012.53
2016-12-15T00:09:51.144Z,1012.55
2016-12-15T00:10:17.705Z,1012.56
2016-12-15T00:10:48.978Z,1012.55
2016-12-15T00:12:08.811Z,1012.56
2016-12-15T00:12:30.570Z,1012.48
2016-12-15T00:12:52.376Z,1012.58
2016-12-15T00:13:18.912Z,1012.56
2016-12-15T00:14:09.176Z,1012.47
2016-12-15T00:14:35.687Z,1012.52
2016-12-15T00:15:24.947Z,1012.53
2016-12-15T00:15:48.690Z,1012.54
2016-12-15T00:16:10.439Z,1012.53
2016-12-15T00:16:32.197Z,1012.55
2016-12-15T00:17:01.560Z,1012.58
2016-12-15T00:17:23.303Z,1012.54
2016-12-15T00:17:45.040Z,1012.49
2016-12-15T00:18:11.541Z,1012.50
2016-12-15T00:18:33.284Z,1012.50
2016-12-15T00:19:26.306Z,1012.58
2016-12-15T00:19:48.048Z,1012.58
2016-12-15T00:20:15.575Z,1012.57
2016-12-15T00:20:37.313Z,1012.52
2016-12-15T00:21:01.046Z,1012.57
2016-12-15T00:21:27.556Z,1012.57
2016-12-15T00:21:58.834Z,1012.58
2016-12-15T00:22:20.567Z,1012.59
2016-12-15T00:22:42.317Z,1012.58
2016-12-15T00:23:08.829Z,1012.59
2016-12-15T00:23:32.873Z,1012.53
2016-12-15T00:23:54.602Z,1012.60
2016-12-15T00:24:52.407Z,1012.58
2016-12-15T00:25:46.436Z,1012.57
2016-12-15T00:26:12.939Z,1012.54
2016-12-15T00:26:35.684Z,1012.54
2016-12-15T00:27:02.194Z,1012.58
2016-12-15T00:28:01.001Z,1012.58
2016-12-15T00:28:22.756Z,1012.58
2016-12-15T00:28:44.516Z,1012.60
2016-12-15T00:29:35.753Z,1012.56
2016-12-15T00:30:02.257Z,1012.52
2016-12-15T00:30:28.761Z,1012.55
2016-12-15T00:31:17.002Z,1012.51
2016-12-15T00:31:39.740Z,1012.55
2016-12-15T00:32:01.514Z,1012.55
2016-12-15T00:32:28.031Z,1012.61
2016-12-15T00:32:49.767Z,1012.61
2016-12-15T00:33:11.516Z,1012.59
2016-12-15T00:33:33.265Z,1012.55
2016-12-15T00:33:55.010Z,1012.58
2016-12-15T00:34:44.260Z,1012.56
2016-12-15T00:35:10.765Z,1012.57
2016-12-15T00:35:37.273Z,1012.61
2016-12-15T00:36:08.542Z,1012.60
2016-12-15T00:36:38.567Z,1012.56
2016-12-15T00:37:00.309Z,1012.60
2016-12-15T00:37:27.911Z,1012.60
2016-12-15T00:37:54.407Z,1012.55
2016-12-15T00:38:19.897Z,1012.58
2016-12-15T00:38:41.650Z,1012.55
2016-12-15T00:39:03.400Z,1012.54
2016-12-15T00:39:25.135Z,1012.56
2016-12-15T00:39:47.862Z,1012.59
2016-12-15T00:40:09.864Z,1012.55
2016-12-15T00:40:36.369Z,1012.62
2016-12-15T00:41:02.886Z,1012.59
2016-12-15T00:41:24.626Z,1012.62
2016-12-15T00:41:55.895Z,1012.61
2016-12-15T00:42:22.407Z,1012.63
2016-12-15T00:42:46.665Z,1012.65
2016-12-15T00:43:13.172Z,1012.60
2016-12-15T00:43:44.265Z,1012.65
2016-12-15T00:44:11.308Z,1012.64
2016-12-15T00:44:33.054Z,1012.67
2016-12-15T00:44:55.799Z,1012.64
2016-12-15T00:45:17.542Z,1012.61
2016-12-15T00:45:46.657Z,1012.65
2016-12-15T00:46:08.411Z,1012.62
2016-12-15T00:46:32.759Z,1012.69
2016-12-15T00:46:54.502Z,1012.67
2016-12-15T00:47:23.959Z,1012.67
2016-12-15T00:47:50.473Z,1012.66
2016-12-15T00:49:23.961Z,1012.75
2016-12-15T00:49:50.463Z,1012.72
2016-12-15T00:50:12.198Z,1012.76
2016-12-15T00:50:34.937Z,1012.69
2016-12-15T00:51:01.467Z,1012.71
2016-12-15T00:51:27.971Z,1012.76
2016-12-15T00:52:21.022Z,1012.75
2016-12-15T00:52:42.750Z,1012.74
2016-12-15T00:53:10.083Z,1012.74
2016-12-15T00:53:36.590Z,1012.76
2016-12-15T00:54:07.872Z,1012.75
2016-12-15T00:54:29.632Z,1012.73
2016-12-15T00:55:28.410Z,1012.69
2016-12-15T00:55:59.694Z,1012.73
2016-12-15T00:56:22.434Z,1012.80
2016-12-15T00:56:44.174Z,1012.81
2016-12-15T00:57:06.035Z,1012.78
2016-12-15T00:57:39.302Z,1012.76
2016-12-15T00:58:05.815Z,1012.76
2016-12-15T00:58:37.098Z,1012.76
2016-12-15T00:58:58.848Z,1012.74
2016-12-15T00:59:56.442Z,1012.77
2016-12-15T01:00:23.026Z,1012.72
2016-12-15T01:00:45.763Z,1012.75
2016-12-15T01:01:11.175Z,1012.69
2016-12-15T01:01:37.674Z,1012.72
2016-12-15T01:01:59.488Z,1012.75
2016-12-15T01:02:28.917Z,1012.81
2016-12-15T01:02:56.423Z,1012.77
2016-12-15T01:03:22.932Z,1012.71
2016-12-15T01:03:47.292Z,1012.72
2016-12-15T01:04:14.803Z,1012.76
2016-12-15T01:04:37.543Z,1012.74
2016-12-15T01:05:06.850Z,1012.78
2016-12-15T01:05:58.031Z,1012.71
2016-12-15T01:06:19.788Z,1012.79
2016-12-15T01:06:53.754Z,1012.77
2016-12-15T01:07:15.498Z,1012.75
2016-12-15T01:07:47.778Z,1012.79
2016-12-15T01:08:11.525Z,1012.77
2016-12-15T01:09:21.309Z,1012.81
2016-12-15T01:09:47.810Z,1012.79
2016-12-15T01:10:14.312Z,1012.79
2016-12-15T01:10:40.810Z,1012.82
2016-12-15T01:11:13.093Z,1012.78
2016-12-15T01:11:39.508Z,1012.78
2016-12-15T01:12:08.917Z,1012.78
2016-12-15T01:12:59.180Z,1012.76
2016-12-15T01:13:31.528Z,1012.80
2016-12-15T01:14:02.856Z,1012.80
2016-12-15T01:14:24.599Z,1012.77
2016-12-15T01:15:12.882Z,1012.81
2016-12-15T01:15:34.618Z,1012.84
2016-12-15T01:15:57.355Z,1012.77
2016-12-15T01:16:23.866Z,1012.85
2016-12-15T01:16:50.386Z,1012.79
2016-12-15T01:17:15.653Z,1012.79
2016-12-15T01:17:42.159Z,1012.82
2016-12-15T01:18:36.186Z,1012.77
2016-12-15T01:19:09.994Z,1012.82
2016-12-15T01:20:00.428Z,1012.83
2016-12-15T01:20:22.198Z,1012.80
2016-12-15T01:20:48.700Z,1012.75
2016-12-15T01:21:12.432Z,1012.82
2016-12-15T01:21:41.452Z,1012.83
2016-12-15T01:22:03.225Z,1012.85
2016-12-15T01:22:35.509Z,1012.85
2016-12-15T01:22:59.371Z,1012.85
2016-12-15T01:23:26.961Z,1012.85
2016-12-15T01:23:48.695Z,1012.84
2016-12-15T01:24:59.051Z,1012.85
2016-12-15T01:25:30.699Z,1012.86
2016-12-15T01:26:02.966Z,1012.77
2016-12-15T01:26:31.463Z,1012.84
2016-12-15T01:27:28.184Z,1012.91
2016-12-15T01:27:54.829Z,1012.87
2016-12-15T01:28:16.574Z,1012.90
2016-12-15T01:28:44.723Z,1012.88
2016-12-15T01:29:07.465Z,1012.90
2016-12-15T01:29:41.441Z,1012.87
2016-12-15T01:30:06.703Z,1012.85
2016-12-15T01:30:28.444Z,1012.83
2016-12-15T01:30:50.200Z,1012.91
2016-12-15T01:31:16.703Z,1012.88
2016-12-15T01:31:41.103Z,1012.88
2016-12-15T01:32:02.833Z,1012.87
2016-12-15T01:32:53.779Z,1012.87
2016-12-15T01:33:55.465Z,1012.89
2016-12-15T01:34:21.990Z,1012.90
2016-12-15T01:34:46.876Z,1012.89
2016-12-15T01:35:40.875Z,1012.87
2016-12-15T01:36:02.660Z,1012.94
2016-12-15T01:36:29.168Z,1012.89
2016-12-15T01:36:54.867Z,1012.88
2016-12-15T01:37:52.646Z,1012.87
2016-12-15T01:38:17.387Z,1012.84
2016-12-15T01:39:15.166Z,1012.91
2016-12-15T01:40:24.262Z,1012.95
2016-12-15T01:40:46.008Z,1012.89
2016-12-15T01:41:17.281Z,1012.91
2016-12-15T01:41:39.024Z,1012.84
2016-12-15T01:42:01.760Z,1012.84
2016-12-15T01:42:28.268Z,1012.92
2016-12-15T01:42:50.029Z,1012.86
2016-12-15T01:43:43.051Z,1012.93
2016-12-15T01:44:04.774Z,1012.90
2016-12-15T01:44:27.520Z,1012.89
2016-12-15T01:44:49.275Z,1012.91
2016-12-15T01:45:11.009Z,1012.89
2016-12-15T01:45:32.750Z,1012.92
2016-12-15T01:45:54.509Z,1012.90
2016-12-15T01:46:21.008Z,1012.91
2016-12-15T01:46:42.745Z,1012.88
2016-12-15T01:47:36.747Z,1012.89
2016-12-15T01:48:04.254Z,1012.90
2016-12-15T01:48:35.524Z,1012.94
2016-12-15T01:48:57.286Z,1012.91
2016-12-15T01:49:19.035Z,1012.88
2016-12-15T01:49:46.537Z,1012.85
2016-12-15T01:50:08.283Z,1012.88
2016-12-15T01:50:30.039Z,1012.89
2016-12-15T01:50:58.547Z,1012.95
2016-12-15T01:51:21.301Z,1012.90
2016-12-15T01:52:14.342Z,1012.93
2016-12-15T01:52:41.846Z,1012.89
2016-12-15T01:53:43.336Z,1012.90
2016-12-15T01:54:10.832Z,1012.89
2016-12-15T01:55:04.835Z,1012.86
2016-12-15T01:55:32.365Z,1012.84
2016-12-15T01:55:56.143Z,1012.87
2016-12-15T01:56:28.483Z,1012.84
2016-12-15T01:56:52.240Z,1012.91
2016-12-15T01:57:15.973Z,1012.87
2016-12-15T01:57:39.717Z,1012.82
2016-12-15T01:58:37.500Z,1012.82
2016-12-15T01:59:04.036Z,1012.80
2016-12-15T01:59:25.924Z,1012.85
2016-12-15T01:59:58.216Z,1012.85
2016-12-15T02:00:21.945Z,1012.87
2016-12-15T02:00:48.454Z,1012.79
2016-12-15T02:01:15.023Z,1012.90
2016-12-15T02:01:36.736Z,1012.90
2016-12-15T02:01:58.499Z,1012.92
2016-12-15T02:02:47.760Z,1012.89
2016-12-15T02:03:10.495Z,1012.90
2016-12-15T02:04:03.555Z,1012.88
2016-12-15T02:04:25.296Z,1012.86
2016-12-15T02:04:51.809Z,1012.85
2016-12-15T02:05:18.401Z,1012.90
2016-12-15T02:05:44.928Z,1012.89
2016-12-15T02:06:11.443Z,1012.84
2016-12-15T02:06:33.185Z,1012.87
2016-12-15T02:06:59.697Z,1012.84
2016-12-15T02:08:19.211Z,1012.84
2016-12-15T02:09:15.225Z,1012.85
2016-12-15T02:09:41.753Z,1012.83
2016-12-15T02:10:05.502Z,1012.86
2016-12-15T02:10:27.236Z,1012.88
2016-12-15T02:10:49.990Z,1012.91
2016-12-15T02:11:13.734Z,1012.87
2016-12-15T02:11:40.251Z,1012.92
2016-12-15T02:12:06.768Z,1012.88
2016-12-15T02:12:29.509Z,1012.83
2016-12-15T02:12:56.005Z,1012.83
2016-12-15T02:13:17.739Z,1012.91
2016-12-15T02:13:40.480Z,1012.85
2016-12-15T02:14:05.254Z,1012.92
2016-12-15T02:15:14.537Z,1012.83
2016-12-15T02:15:41.053Z,1012.86
2016-12-15T02:16:04.813Z,1012.89
2016-12-15T02:17:52.584Z,1012.82
2016-12-15T02:18:15.312Z,1012.81
2016-12-15T02:18:37.051Z,1012.76
2016-12-15T02:19:03.589Z,1012.83
2016-12-15T02:19:26.332Z,1012.79
2016-12-15T02:19:49.082Z,1012.77
2016-12-15T02:20:11.830Z,1012.77
2016-12-15T02:20:34.699Z,1012.83
2016-12-15T02:20:59.428Z,1012.82
2016-12-15T02:21:24.203Z,1012.78
2016-12-15T02:21:56.467Z,1012.82
2016-12-15T02:22:21.096Z,1012.78
2016-12-15T02:22:42.920Z,1012.84
2016-12-15T02:23:07.279Z,1012.76
2016-12-15T02:23:29.013Z,1012.77
2016-12-15T02:23:51.744Z,1012.82
2016-12-15T02:24:18.272Z,1012.78
2016-12-15T02:24:40.008Z,1012.79
2016-12-15T02:25:40.327Z,1012.80
2016-12-15T02:26:02.059Z,1012.80
2016-12-15T02:26:27.543Z,1012.84
2016-12-15T02:26:51.876Z,1012.81
2016-12-15T02:28:20.986Z,1012.78
2016-12-15T02:28:42.728Z,1012.76
2016-12-15T02:29:09.231Z,1012.78
2016-12-15T02:29:31.995Z,1012.78
2016-12-15T02:29:54.739Z,1012.72
2016-12-15T02:30:16.488Z,1012.78
2016-12-15T02:30:43.989Z,1012.78
2016-12-15T02:31:10.504Z,1012.75
2016-12-15T02:31:37.007Z,1012.75
2016-12-15T02:32:10.691Z,1012.75
2016-12-15T02:32:41.965Z,1012.79
2016-12-15T02:33:49.090Z,1012.79
2016-12-15T02:34:38.434Z,1012.79
2016-12-15T02:35:07.613Z,1012.78
2016-12-15T02:35:30.387Z,1012.77
2016-12-15T02:35:52.125Z,1012.74
2016-12-15T02:36:43.384Z,1012.79
2016-12-15T02:37:06.107Z,1012.78
2016-12-15T02:37:32.448Z,1012.75
2016-12-15T02:38:28.045Z,1012.72
2016-12-15T02:38:52.527Z,1012.76
2016-12-15T02:39:14.270Z,1012.72
2016-12-15T02:40:05.147Z,1012.73
2016-12-15T02:40:29.888Z,1012.72
2016-12-15T02:40:54.222Z,1012.79
2016-12-15T02:41:21.757Z,1012.71
2016-12-15T02:41:47.361Z,1012.71
2016-12-15T02:42:10.099Z,1012.70
2016-12-15T02:43:44.062Z,1012.71
2016-12-15T02:44:05.792Z,1012.67
2016-12-15T02:44:32.306Z,1012.68
2016-12-15T02:44:56.877Z,1012.69
2016-12-15T02:45:18.611Z,1012.66
2016-12-15T02:46:16.394Z,1012.72
2016-12-15T02:46:39.133Z,1012.74
2016-12-15T02:47:08.204Z,1012.72
2016-12-15T02:48:03.931Z,1012.74
2016-12-15T02:48:25.676Z,1012.70
2016-12-15T02:48:48.423Z,1012.69
2016-12-15T02:49:47.187Z,1012.70
2016-12-15T02:50:08.911Z,1012.77
2016-12-15T02:50:35.428Z,1012.74
2016-12-15T02:51:24.672Z,1012.77
2016-12-15T02:51:55.954Z,1012.76
2016-12-15T02:52:24.970Z,1012.74
2016-12-15T02:52:46.733Z,1012.74
2016-12-15T02:53:13.234Z,1012.75
2016-12-15T02:53:38.518Z,1012.76
2016-12-15T02:54:05.039Z,1012.77
2016-12-15T02:54:28.794Z,1012.78
2016-12-15T02:54:50.532Z,1012.75
2016-12-15T02:55:12.286Z,1012.78
2016-12-15T02:55:34.048Z,1012.75
2016-12-15T02:56:27.078Z,1012.70
2016-12-15T02:56:56.568Z,1012.77
2016-12-15T02:57:22.084Z,1012.76
2016-12-15T02:57:45.814Z,1012.74
2016-12-15T02:58:12.333Z,1012.77
2016-12-15T02:58:34.067Z,1012.78
2016-12-15T02:59:32.904Z,1012.79
2016-12-15T02:59:54.653Z,1012.71
2016-12-15T03:01:10.411Z,1012.77
2016-12-15T03:02:05.425Z,1012.72
2016-12-15T03:02:30.800Z,1012.75
2016-12-15T03:02:56.114Z,1012.73
2016-12-15T03:03:23.626Z,1012.80
2016-12-15T03:03:45.371Z,1012.80
2016-12-15T03:04:11.906Z,1012.79
2016-12-15T03:04:48.694Z,1012.72
2016-12-15T03:05:10.469Z,1012.75
2016-12-15T03:05:33.248Z,1012.74
2016-12-15T03:05:55.010Z,1012.77
2016-12-15T03:06:19.740Z,1012.76
2016-12-15T03:06:49.155Z,1012.70
2016-12-15T03:07:10.894Z,1012.75
2016-12-15T03:07:37.806Z,1012.75
2016-12-15T03:08:00.566Z,1012.75
2016-12-15T03:08:27.205Z,1012.74
2016-12-15T03:08:53.716Z,1012.76
2016-12-15T03:09:20.225Z,1012.73
2016-12-15T03:09:42.976Z,1012.74
2016-12-15T03:10:05.706Z,1012.75
2016-12-15T03:10:32.229Z,1012.72
2016-12-15T03:11:03.506Z,1012.74
2016-12-15T03:12:01.282Z,1012.72
2016-12-15T03:12:24.016Z,1012.73
2016-12-15T03:12:46.747Z,1012.73
2016-12-15T03:13:19.123Z,1012.71
2016-12-15T03:14:23.671Z,1012.65
2016-12-15T03:14:58.455Z,1012.70
2016-12-15T03:15:22.192Z,1012.66
2016-12-15T03:16:26.270Z,1012.61
2016-12-15T03:16:48.011Z,1012.62
2016-12-15T03:17:14.517Z,1012.65
2016-12-15T03:17:36.250Z,1012.66
2016-12-15T03:18:02.757Z,1012.67
2016-12-15T03:18:29.358Z,1012.66
2016-12-15T03:19:23.261Z,1012.63
2016-12-15T03:19:45.020Z,1012.66
2016-12-15T03:20:11.528Z,1012.60
2016-12-15T03:20:38.034Z,1012.64
2016-12-15T03:21:27.277Z,1012.64
2016-12-15T03:21:51.034Z,1012.60
2016-12-15T03:22:14.760Z,1012.58
2016-12-15T03:22:36.505Z,1012.58
2016-12-15T03:23:34.459Z,1012.57
2016-12-15T03:24:03.501Z,1012.59
2016-12-15T03:24:25.243Z,1012.57
2016-12-15T03:24:51.767Z,1012.54
2016-12-15T03:25:16.048Z,1012.58
2016-12-15T03:25:42.559Z,1012.56
2016-12-15T03:26:07.210Z,1012.58
2016-12-15T03:26:31.546Z,1012.54
2016-12-15T03:26:58.046Z,1012.58
2016-12-15T03:27:54.765Z,1012.54
2016-12-15T03:28:22.256Z,1012.57
2016-12-15T03:28:44.000Z,1012.58
2016-12-15T03:29:10.507Z,1012.57
2016-12-15T03:29:33.464Z,1012.52
2016-12-15T03:30:05.732Z,1012.57
2016-12-15T03:30:37.063Z,1012.58
2016-12-15T03:30:59.805Z,1012.60
2016-12-15T03:32:14.849Z,1012.64
2016-12-15T03:33:31.659Z,1012.60
2016-12-15T03:33:55.410Z,1012.62
2016-12-15T03:34:21.914Z,1012.65
2016-12-15T03:34:43.648Z,1012.60
2016-12-15T03:35:12.157Z,1012.61
2016-12-15T03:35:34.936Z,1012.56
2016-12-15T03:36:07.207Z,1012.62
2016-12-15T03:36:29.964Z,1012.59
2016-12-15T03:36:56.464Z,1012.59
2016-12-15T03:37:26.834Z,1012.59
2016-12-15T03:37:48.572Z,1012.64
2016-12-15T03:38:15.084Z,1012.59
2016-12-15T03:38:37.850Z,1012.56
2016-12-15T03:39:05.341Z,1012.61
2016-12-15T03:39:30.074Z,1012.60
2016-12-15T03:39:53.807Z,1012.59
2016-12-15T03:40:44.834Z,1012.60
2016-12-15T03:41:33.131Z,1012.54
2016-12-15T03:42:05.401Z,1012.59
2016-12-15T03:42:28.130Z,1012.58
2016-12-15T03:42:52.608Z,1012.55
2016-12-15T03:43:47.770Z,1012.61
2016-12-15T03:44:09.517Z,1012.63
2016-12-15T03:44:36.042Z,1012.61
2016-12-15T03:45:31.056Z,1012.63
2016-12-15T03:45:52.808Z,1012.60
2016-12-15T03:46:14.571Z,1012.61
2016-12-15T03:46:43.695Z,1012.60
2016-12-15T03:47:05.434Z,1012.63
2016-12-15T03:48:05.221Z,1012.65
2016-12-15T03:48:31.732Z,1012.62
2016-12-15T03:48:53.498Z,1012.63
2016-12-15T03:49:20.008Z,1012.64
2016-12-15T03:49:41.778Z,1012.61
2016-12-15T03:50:03.520Z,1012.63
2016-12-15T03:50:30.039Z,1012.64
2016-12-15T03:50:51.776Z,1012.60
2016-12-15T03:51:27.818Z,1012.63
2016-12-15T03:51:54.332Z,1012.65
2016-12-15T03:52:43.664Z,1012.62
2016-12-15T03:53:06.395Z,1012.60
2016-12-15T03:53:28.141Z,1012.64
2016-12-15T03:54:00.407Z,1012.64
2016-12-15T03:54:24.148Z,1012.64
2016-12-15T03:54:47.888Z,1012.67
2016-12-15T03:55:14.392Z,1012.64
2016-12-15T03:55:37.126Z,1012.64
2016-12-15T03:56:05.464Z,1012.65
2016-12-15T03:56:27.336Z,1012.66
2016-12-15T03:56:50.066Z,1012.66
2016-12-15T03:57:11.812Z,1012.68
2016-12-15T03:57:36.339Z,1012.66
2016-12-15T03:58:02.845Z,1012.67
2016-12-15T03:59:01.629Z,1012.65
2016-12-15T03:59:54.768Z,1012.66
2016-12-15T04:00:16.515Z,1012.65
2016-12-15T04:00:43.053Z,1012.69
2016-12-15T04:01:09.565Z,1012.69
2016-12-15T04:01:59.815Z,1012.64
2016-12-15T04:02:22.575Z,1012.65
2016-12-15T04:02:44.322Z,1012.64
2016-12-15T04:03:09.928Z,1012.70
2016-12-15T04:03:31.663Z,1012.69
2016-12-15T04:03:59.166Z,1012.68
2016-12-15T04:04:20.917Z,1012.68
2016-12-15T04:04:42.818Z,1012.67
2016-12-15T04:05:09.344Z,1012.68
2016-12-15T04:05:32.088Z,1012.70
2016-12-15T04:06:03.354Z,1012.71
2016-12-15T04:06:30.879Z,1012.71
2016-12-15T04:07:28.665Z,1012.71
2016-12-15T04:07:55.181Z,1012.69
2016-12-15T04:08:33.205Z,1012.73
2016-12-15T04:08:59.709Z,1012.69
2016-12-15T04:09:21.453Z,1012.66
2016-12-15T04:09:47.961Z,1012.68
2016-12-15T04:10:09.708Z,1012.66
2016-12-15T04:10:36.207Z,1012.68
2016-12-15T04:11:01.824Z,1012.68
2016-12-15T04:11:23.581Z,1012.69
2016-12-15T04:11:45.320Z,1012.65
2016-12-15T04:12:11.845Z,1012.68
2016-12-15T04:12:51.613Z,1012.69
2016-12-15T04:13:13.347Z,1012.70
2016-12-15T04:14:33.884Z,1012.62
2016-12-15T04:15:22.130Z,1012.66
2016-12-15T04:15:48.629Z,1012.66
2016-12-15T04:16:42.728Z,1012.66
2016-12-15T04:17:04.464Z,1012.61
2016-12-15T04:17:31.966Z,1012.64
2016-12-15T04:17:53.703Z,1012.64
2016-12-15T04:18:15.446Z,1012.58
2016-12-15T04:18:37.199Z,1012.63
2016-12-15T04:18:58.920Z,1012.61
2016-12-15T04:19:25.432Z,1012.59
2016-12-15T04:19:47.176Z,1012.60
2016-12-15T04:20:08.927Z,1012.58
2016-12-15T04:21:01.762Z,1012.55
2016-12-15T04:21:23.544Z,1012.54
2016-12-15T04:21:50.090Z,1012.54
2016-12-15T04:22:14.351Z,1012.55
2016-12-15T04:22:36.090Z,1012.58
2016-12-15T04:23:26.925Z,1012.58
2016-12-15T04:23:49.730Z,1012.54
2016-12-15T04:24:14.043Z,1012.59
2016-12-15T04:24:40.419Z,1012.63
2016-12-15T04:25:02.157Z,1012.57
2016-12-15T04:25:26.541Z,1012.57
2016-12-15T04:25:53.088Z,1012.54
2016-12-15T04:26:29.894Z,1012.58
2016-12-15T04:26:51.635Z,1012.56
2016-12-15T04:27:41.894Z,1012.55
2016-12-15T04:28:08.394Z,1012.48
2016-12-15T04:29:06.763Z,1012.53
2016-12-15T04:29:29.535Z,1012.51
2016-12-15T04:30:54.829Z,1012.54
2016-12-15T04:31:16.584Z,1012.55
2016-12-15T04:31:38.320Z,1012.53
2016-12-15T04:32:29.220Z,1012.57
2016-12-15T04:32:51.961Z,1012.53
2016-12-15T04:33:21.298Z,1012.55
2016-12-15T04:33:43.040Z,1012.54
2016-12-15T04:34:07.463Z,1012.54
2016-12-15T04:34:29.227Z,1012.55
2016-12-15T04:35:00.509Z,1012.56
2016-12-15T04:35:28.027Z,1012.57
2016-12-15T04:35:51.795Z,1012.50
2016-12-15T04:36:17.181Z,1012.49
2016-12-15T04:36:47.261Z,1012.53
2016-12-15T04:37:13.773Z,1012.51
2016-12-15T04:37:35.520Z,1012.51
2016-12-15T04:38:34.296Z,1012.52
2016-12-15T04:38:57.039Z,1012.47
2016-12-15T04:39:32.890Z,1012.47
2016-12-15T04:39:59.408Z,1012.51
2016-12-15T04:40:25.914Z,1012.51
2016-12-15T04:40:58.192Z,1012.54
2016-12-15T04:41:24.696Z,1012.49
2016-12-15T04:42:26.028Z,1012.51
2016-12-15T04:42:52.539Z,1012.49
2016-12-15T04:43:15.274Z,1012.46
2016-12-15T04:44:08.312Z,1012.49
2016-12-15T04:44:35.814Z,1012.49
2016-12-15T04:45:02.311Z,1012.39
2016-12-15T04:45:27.923Z,1012.42
2016-12-15T04:46:21.948Z,1012.47
2016-12-15T04:46:44.701Z,1012.50
2016-12-15T04:47:08.446Z,1012.43
2016-12-15T04:47:39.714Z,1012.42
2016-12-15T04:48:07.211Z,1012.47
2016-12-15T04:48:33.720Z,1012.49
2016-12-15T04:50:03.771Z,1012.55
2016-12-15T04:50:26.517Z,1012.59
2016-12-15T04:51:19.529Z,1012.55
2016-12-15T04:51:49.757Z,1012.56
2016-12-15T04:52:16.277Z,1012.55
2016-12-15T04:52:39.008Z,1012.53
2016-12-15T04:53:00.743Z,1012.53
2016-12-15T04:53:28.350Z,1012.56
2016-12-15T04:53:53.773Z,1012.50
2016-12-15T04:54:17.517Z,1012.53
2016-12-15T04:54:48.621Z,1012.53
2016-12-15T04:55:11.368Z,1012.51
2016-12-15T04:55:34.114Z,1012.53
2016-12-15T04:56:00.614Z,1012.54
2016-12-15T04:56:29.904Z,1012.52
2016-12-15T04:57:02.181Z,1012.60
2016-12-15T04:57:28.688Z,1012.55
2016-12-15T04:57:59.953Z,1012.56
2016-12-15T04:58:26.462Z,1012.50
2016-12-15T04:58:49.212Z,1012.50
2016-12-15T04:59:15.711Z,1012.50
2016-12-15T04:59:42.225Z,1012.52
2016-12-15T05:00:08.737Z,1012.54
2016-12-15T05:00:31.467Z,1012.49
2016-12-15T05:00:53.203Z,1012.52
2016-12-15T05:01:16.959Z,1012.52
2016-12-15T05:01:40.714Z,1012.48
2016-12-15T05:02:03.582Z,1012.50
2016-12-15T05:02:31.083Z,1012.51
2016-12-15T05:03:03.355Z,1012.50
2016-12-15T05:04:12.623Z,1012.47
2016-12-15T05:04:34.361Z,1012.52
2016-12-15T05:04:57.089Z,1012.47
2016-12-15T05:05:19.837Z,1012.43
2016-12-15T05:05:51.121Z,1012.40
2016-12-15T05:06:12.860Z,1012.45
2016-12-15T05:06:34.593Z,1012.53
2016-12-15T05:06:57.330Z,1012.47
2016-12-15T05:07:19.087Z,1012.47
2016-12-15T05:07:46.596Z,1012.43
2016-12-15T05:08:39.620Z,1012.47
2016-12-15T05:09:02.362Z,1012.52
2016-12-15T05:09:34.628Z,1012.50
2016-12-15T05:10:01.140Z,1012.52
2016-12-15T05:10:22.876Z,1012.49
2016-12-15T05:10:50.378Z,1012.46
2016-12-15T05:11:16.887Z,1012.50
2016-12-15T05:12:14.664Z,1012.46
2016-12-15T05:12:41.191Z,1012.44
2016-12-15T05:13:08.748Z,1012.53
2016-12-15T05:13:35.258Z,1012.50
2016-12-15T05:14:06.522Z,1012.47
2016-12-15T05:14:31.249Z,1012.48
2016-12-15T05:14:52.985Z,1012.56
2016-12-15T05:15:14.748Z,1012.47
2016-12-15T05:16:10.601Z,1012.62
2016-12-15T05:16:33.348Z,1012.56
2016-12-15T05:17:28.828Z,1012.54
2016-12-15T05:17:55.337Z,1012.53
2016-12-15T05:18:17.087Z,1012.54
2016-12-15T05:18:42.666Z,1012.53
2016-12-15T05:19:04.397Z,1012.51
2016-12-15T05:19:36.663Z,1012.52
2016-12-15T05:20:25.909Z,1012.55
2016-12-15T05:20:49.654Z,1012.56
2016-12-15T05:21:12.387Z,1012.57
2016-12-15T05:21:35.143Z,1012.57
2016-12-15T05:21:56.872Z,1012.55
2016-12-15T05:22:27.993Z,1012.54
2016-12-15T05:22:52.620Z,1012.55
2016-12-15T05:23:14.364Z,1012.53
2016-12-15T05:24:10.225Z,1012.55
2016-12-15T05:24:31.977Z,1012.56
2016-12-15T05:24:53.723Z,1012.50
2016-12-15T05:25:15.463Z,1012.49
2016-12-15T05:25:37.201Z,1012.53
2016-12-15T05:25:59.935Z,1012.53
2016-12-15T05:26:26.439Z,1012.56
2016-12-15T05:26:52.962Z,1012.54
2016-12-15T05:27:15.698Z,1012.51
2016-12-15T05:27:37.447Z,1012.44
2016-12-15T05:28:03.940Z,1012.48
2016-12-15T05:28:30.443Z,1012.46
2016-12-15T05:28:52.788Z,1012.45
2016-12-15T05:29:19.292Z,1012.43
2016-12-15T05:29:41.060Z,1012.46
2016-12-15T05:30:02.827Z,1012.48
2016-12-15T05:30:24.565Z,1012.48
2016-12-15T05:30:52.066Z,1012.59
2016-12-15T05:31:13.818Z,1012.48
2016-12-15T05:31:40.324Z,1012.49
2016-12-15T05:32:04.971Z,1012.55
2016-12-15T05:32:26.708Z,1012.55
2016-12-15T05:32:53.243Z,1012.55
2016-12-15T05:33:41.498Z,1012.51
2016-12-15T05:34:03.233Z,1012.48
2016-12-15T05:34:24.975Z,1012.51
2016-12-15T05:35:24.566Z,1012.44
2016-12-15T05:35:47.300Z,1012.49
2016-12-15T05:36:09.034Z,1012.49
2016-12-15T05:36:31.765Z,1012.47
2016-12-15T05:36:58.274Z,1012.55
2016-12-15T05:37:24.780Z,1012.49
2016-12-15T05:37:46.529Z,1012.52
2016-12-15T05:39:17.439Z,1012.53
2016-12-15T05:39:43.937Z,1012.59
2016-12-15T05:40:09.665Z,1012.59
2016-12-15T05:40:36.170Z,1012.60
2016-12-15T05:40:58.902Z,1012.62
2016-12-15T05:41:21.643Z,1012.61
2016-12-15T05:41:43.374Z,1012.57
2016-12-15T05:42:07.108Z,1012.63
2016-12-15T05:42:28.849Z,1012.60
2016-12-15T05:42:50.605Z,1012.61
2016-12-15T05:43:12.339Z,1012.61
2016-12-15T05:44:06.337Z,1012.63
2016-12-15T05:44:37.605Z,1012.62
2016-12-15T05:44:59.345Z,1012.66
2016-12-15T05:45:21.076Z,1012.53
2016-12-15T05:46:19.917Z,1012.59
2016-12-15T05:46:41.655Z,1012.61
2016-12-15T05:47:03.388Z,1012.60
2016-12-15T05:47:31.893Z,1012.59
2016-12-15T05:47:53.642Z,1012.64
2016-12-15T05:48:20.143Z,1012.62
2016-12-15T05:48:41.900Z,1012.60
2016-12-15T05:49:06.270Z,1012.62
2016-12-15T05:49:33.769Z,1012.60
2016-12-15T05:49:55.503Z,1012.60
2016-12-15T05:50:22.005Z,1012.72
2016-12-15T05:50:43.746Z,1012.67
2016-12-15T05:51:07.480Z,1012.65
2016-12-15T05:51:29.209Z,1012.62
2016-12-15T05:51:51.993Z,1012.67
2016-12-15T05:52:17.469Z,1012.66
2016-12-15T05:52:40.215Z,1012.66
2016-12-15T05:53:06.725Z,1012.67
2016-12-15T05:53:29.455Z,1012.67
2016-12-15T05:53:51.227Z,1012.70
2016-12-15T05:54:13.978Z,1012.67
2016-12-15T05:55:08.004Z,1012.74
2016-12-15T05:55:29.732Z,1012.69
2016-12-15T05:55:51.475Z,1012.68
2016-12-15T05:56:17.971Z,1012.71
2016-12-15T05:56:44.474Z,1012.69
2016-12-15T05:57:15.746Z,1012.64
2016-12-15T05:58:03.983Z,1012.70
2016-12-15T05:58:25.725Z,1012.66
2016-12-15T05:58:47.503Z,1012.71
2016-12-15T05:59:14.277Z,1012.69
2016-12-15T05:59:40.849Z,1012.64
2016-12-15T06:00:02.589Z,1012.71
2016-12-15T06:00:24.361Z,1012.70
2016-12-15T06:00:47.221Z,1012.70
2016-12-15T06:01:13.733Z,1012.69
2016-12-15T06:01:35.502Z,1012.69
2016-12-15T06:01:57.250Z,1012.70
2016-12-15T06:02:20.004Z,1012.67
2016-12-15T06:02:41.746Z,1012.71
2016-12-15T06:03:10.981Z,1012.67
2016-12-15T06:03:32.743Z,1012.65
2016-12-15T06:03:55.610Z,1012.75
2016-12-15T06:04:22.112Z,1012.70